sensor_id;sensor_type;location;lat;lon;timestamp;temperature;humidity
26599;DHT22;14240;51.064;16.612;2022-09-29T00:00:22;8.10;99.90
26599;DHT22;14240;51.064;16.612;2022-09-29T00:02:48;8.00;99.90
26599;DHT22;14240;51.064;16.612;2022-09-29T00:05:13;8.00;99.90
26599;DHT22;14240;51.064;16.612;2022-09-29T00:07:39;8.00;99.90
26599;DHT22;14240;51.064;16.612;2022-09-29T00:10:05;8.00;99.90
26599;DHT22;14240;51.064;16.612;2022-09-29T00:12:30;7.90;99.90
26599;DHT22;14240;51.064;16.612;2022-09-29T00:14:56;8.00;99.90
26599;DHT22;14240;51.064;16.612;2022-09-29T00:17:21;7.90;99.90
26599;DHT22;14240;51.064;16.612;2022-09-29T00:19:47;7.90;99.90
26599;DHT22;14240;51.064;16.612;2022-09-29T00:22:13;7.90;99.90
26599;DHT22;14240;51.064;16.612;2022-09-29T00:24:38;7.90;99.90
26599;DHT22;14240;51.064;16.612;2022-09-29T00:27:04;7.90;99.90
26599;DHT22;14240;51.064;16.612;2022-09-29T00:29:29;7.90;99.90
26599;DHT22;14240;51.064;16.612;2022-09-29T00:31:55;7.90;99.90
26599;DHT22;14240;51.064;16.612;2022-09-29T00:34:21;7.90;99.90
26599;DHT22;14240;51.064;16.612;2022-09-29T00:36:46;7.90;99.90
26599;DHT22;14240;51.064;16.612;2022-09-29T00:39:12;7.80;99.90
26599;DHT22;14240;51.064;16.612;2022-09-29T00:41:38;7.80;99.90
26599;DHT22;14240;51.064;16.612;2022-09-29T00:46:56;7.80;99.90
26599;DHT22;14240;51.064;16.612;2022-09-29T00:52:32;7.80;99.90
26599;DHT22;14240;51.064;16.612;2022-09-29T00:55:02;7.80;99.90
26599;DHT22;14240;51.064;16.612;2022-09-29T00:57:37;7.80;99.90
26599;DHT22;14240;51.064;16.612;2022-09-29T01:00:09;7.80;99.90
26599;DHT22;14240;51.064;16.612;2022-09-29T01:02:39;7.80;99.90
26599;DHT22;14240;51.064;16.612;2022-09-29T01:05:12;7.80;99.90
26599;DHT22;14240;51.064;16.612;2022-09-29T01:07:40;7.80;99.90
26599;DHT22;14240;51.064;16.612;2022-09-29T01:10:09;7.70;99.90
26599;DHT22;14240;51.064;16.612;2022-09-29T01:12:35;7.80;99.90
26599;DHT22;14240;51.064;16.612;2022-09-29T01:15:01;7.80;99.90
26599;DHT22;14240;51.064;16.612;2022-09-29T01:17:27;7.70;99.90
26599;DHT22;14240;51.064;16.612;2022-09-29T01:20:22;7.70;99.90
26599;DHT22;14240;51.064;16.612;2022-09-29T01:23:21;7.70;99.90
26599;DHT22;14240;51.064;16.612;2022-09-29T01:31:54;7.70;99.90
26599;DHT22;14240;51.064;16.612;2022-09-29T01:42:38;7.60;99.90
26599;DHT22;14240;51.064;16.612;2022-09-29T01:45:15;7.60;99.90
26599;DHT22;14240;51.064;16.612;2022-09-29T01:47:46;7.60;99.90
26599;DHT22;14240;51.064;16.612;2022-09-29T01:50:17;7.50;99.90
26599;DHT22;14240;51.064;16.612;2022-09-29T01:52:49;7.50;99.90
26599;DHT22;14240;51.064;16.612;2022-09-29T01:55:18;7.50;99.90
26599;DHT22;14240;51.064;16.612;2022-09-29T01:57:56;7.50;99.90
26599;DHT22;14240;51.064;16.612;2022-09-29T02:00:24;7.50;99.90
26599;DHT22;14240;51.064;16.612;2022-09-29T02:03:06;7.50;99.90
26599;DHT22;14240;51.064;16.612;2022-09-29T02:05:37;7.50;99.90
26599;DHT22;14240;51.064;16.612;2022-09-29T02:08:26;7.40;99.90
26599;DHT22;14240;51.064;16.612;2022-09-29T02:11:11;7.50;99.90
26599;DHT22;14240;51.064;16.612;2022-09-29T02:13:44;7.50;99.90
26599;DHT22;14240;51.064;16.612;2022-09-29T02:16:15;7.40;99.90
26599;DHT22;14240;51.064;16.612;2022-09-29T02:19:09;7.40;99.90
26599;DHT22;14240;51.064;16.612;2022-09-29T02:21:35;7.40;99.90
26599;DHT22;14240;51.064;16.612;2022-09-29T02:24:02;7.40;99.90
26599;DHT22;14240;51.064;16.612;2022-09-29T02:26:32;7.40;99.90
26599;DHT22;14240;51.064;16.612;2022-09-29T02:29:02;7.40;99.90
26599;DHT22;14240;51.064;16.612;2022-09-29T02:31:29;7.40;99.90
26599;DHT22;14240;51.064;16.612;2022-09-29T02:33:55;7.40;99.90
26599;DHT22;14240;51.064;16.612;2022-09-29T02:36:47;7.40;99.90
26599;DHT22;14240;51.064;16.612;2022-09-29T02:45:10;7.40;99.90
26599;DHT22;14240;51.064;16.612;2022-09-29T02:53:15;7.30;99.90
26599;DHT22;14240;51.064;16.612;2022-09-29T02:55:53;7.30;99.90
26599;DHT22;14240;51.064;16.612;2022-09-29T02:58:38;7.30;99.90
26599;DHT22;14240;51.064;16.612;2022-09-29T03:01:05;7.30;99.90
26599;DHT22;14240;51.064;16.612;2022-09-29T03:03:32;7.30;99.90
26599;DHT22;14240;51.064;16.612;2022-09-29T03:05:57;7.30;99.90
26599;DHT22;14240;51.064;16.612;2022-09-29T03:08:23;7.30;99.90
26599;DHT22;14240;51.064;16.612;2022-09-29T03:10:49;7.30;99.90
26599;DHT22;14240;51.064;16.612;2022-09-29T03:13:14;7.20;99.90
26599;DHT22;14240;51.064;16.612;2022-09-29T03:15:40;7.20;99.90
26599;DHT22;14240;51.064;16.612;2022-09-29T03:18:05;7.20;99.90
26599;DHT22;14240;51.064;16.612;2022-09-29T03:20:32;7.20;99.90
26599;DHT22;14240;51.064;16.612;2022-09-29T03:22:58;7.20;99.90
26599;DHT22;14240;51.064;16.612;2022-09-29T03:25:24;7.20;99.90
26599;DHT22;14240;51.064;16.612;2022-09-29T03:27:50;7.20;99.90
26599;DHT22;14240;51.064;16.612;2022-09-29T03:30:16;7.10;99.90
26599;DHT22;14240;51.064;16.612;2022-09-29T03:32:42;7.20;99.90
26599;DHT22;14240;51.064;16.612;2022-09-29T03:35:09;7.20;99.90
26599;DHT22;14240;51.064;16.612;2022-09-29T03:37:35;7.10;99.90
26599;DHT22;14240;51.064;16.612;2022-09-29T03:40:01;7.20;99.90
26599;DHT22;14240;51.064;16.612;2022-09-29T03:42:26;7.10;99.90
26599;DHT22;14240;51.064;16.612;2022-09-29T03:44:53;7.10;99.90
26599;DHT22;14240;51.064;16.612;2022-09-29T03:47:19;7.10;99.90
26599;DHT22;14240;51.064;16.612;2022-09-29T03:49:45;7.10;99.90
26599;DHT22;14240;51.064;16.612;2022-09-29T03:52:10;7.10;99.90
26599;DHT22;14240;51.064;16.612;2022-09-29T03:54:36;7.10;99.90
26599;DHT22;14240;51.064;16.612;2022-09-29T03:57:02;7.10;99.90
26599;DHT22;14240;51.064;16.612;2022-09-29T03:59:27;7.10;99.90
26599;DHT22;14240;51.064;16.612;2022-09-29T04:01:53;7.10;99.90
26599;DHT22;14240;51.064;16.612;2022-09-29T04:04:19;7.10;99.90
26599;DHT22;14240;51.064;16.612;2022-09-29T04:06:44;7.10;99.90
26599;DHT22;14240;51.064;16.612;2022-09-29T04:09:10;7.10;99.90
26599;DHT22;14240;51.064;16.612;2022-09-29T04:11:36;7.10;99.90
26599;DHT22;14240;51.064;16.612;2022-09-29T04:14:01;7.20;99.90
26599;DHT22;14240;51.064;16.612;2022-09-29T04:16:27;7.10;99.90
26599;DHT22;14240;51.064;16.612;2022-09-29T04:18:53;7.20;99.90
26599;DHT22;14240;51.064;16.612;2022-09-29T04:21:18;7.20;99.90
26599;DHT22;14240;51.064;16.612;2022-09-29T04:23:45;7.20;99.90
26599;DHT22;14240;51.064;16.612;2022-09-29T04:26:11;7.20;99.90
26599;DHT22;14240;51.064;16.612;2022-09-29T04:28:37;7.20;99.90
26599;DHT22;14240;51.064;16.612;2022-09-29T04:31:03;7.20;99.90
26599;DHT22;14240;51.064;16.612;2022-09-29T04:33:29;7.20;99.90
26599;DHT22;14240;51.064;16.612;2022-09-29T04:35:56;7.20;99.90
26599;DHT22;14240;51.064;16.612;2022-09-29T04:38:22;7.20;99.90
26599;DHT22;14240;51.064;16.612;2022-09-29T04:40:48;7.20;99.90
26599;DHT22;14240;51.064;16.612;2022-09-29T04:43:14;7.20;99.90
26599;DHT22;14240;51.064;16.612;2022-09-29T04:45:39;7.20;99.90
26599;DHT22;14240;51.064;16.612;2022-09-29T04:48:05;7.20;99.90
26599;DHT22;14240;51.064;16.612;2022-09-29T04:50:32;7.20;99.90
26599;DHT22;14240;51.064;16.612;2022-09-29T04:52:58;7.20;99.90
26599;DHT22;14240;51.064;16.612;2022-09-29T04:55:24;7.20;99.90
26599;DHT22;14240;51.064;16.612;2022-09-29T04:57:50;7.20;99.90
26599;DHT22;14240;51.064;16.612;2022-09-29T05:00:16;7.20;99.90
26599;DHT22;14240;51.064;16.612;2022-09-29T05:02:42;7.20;99.90
26599;DHT22;14240;51.064;16.612;2022-09-29T05:05:08;7.20;99.90
26599;DHT22;14240;51.064;16.612;2022-09-29T05:07:35;7.20;99.90
26599;DHT22;14240;51.064;16.612;2022-09-29T05:10:02;7.20;99.90
26599;DHT22;14240;51.064;16.612;2022-09-29T05:12:28;7.20;99.90
26599;DHT22;14240;51.064;16.612;2022-09-29T05:14:53;7.20;99.90
26599;DHT22;14240;51.064;16.612;2022-09-29T05:17:19;7.30;99.90
26599;DHT22;14240;51.064;16.612;2022-09-29T05:19:44;7.20;99.90
26599;DHT22;14240;51.064;16.612;2022-09-29T05:22:10;7.30;99.90
26599;DHT22;14240;51.064;16.612;2022-09-29T05:24:36;7.30;99.90
26599;DHT22;14240;51.064;16.612;2022-09-29T05:27:01;7.30;99.90
26599;DHT22;14240;51.064;16.612;2022-09-29T05:29:27;7.30;99.90
26599;DHT22;14240;51.064;16.612;2022-09-29T05:31:53;7.30;99.90
26599;DHT22;14240;51.064;16.612;2022-09-29T05:34:19;7.40;99.90
26599;DHT22;14240;51.064;16.612;2022-09-29T05:36:44;7.50;99.90
26599;DHT22;14240;51.064;16.612;2022-09-29T05:39:10;7.50;99.90
26599;DHT22;14240;51.064;16.612;2022-09-29T05:41:36;7.50;99.90
26599;DHT22;14240;51.064;16.612;2022-09-29T05:44:02;7.60;99.90
26599;DHT22;14240;51.064;16.612;2022-09-29T05:46:27;7.60;99.90
26599;DHT22;14240;51.064;16.612;2022-09-29T05:48:53;7.70;99.90
26599;DHT22;14240;51.064;16.612;2022-09-29T05:51:21;7.70;99.90
26599;DHT22;14240;51.064;16.612;2022-09-29T05:53:48;7.70;99.90
26599;DHT22;14240;51.064;16.612;2022-09-29T05:56:16;7.80;99.90
26599;DHT22;14240;51.064;16.612;2022-09-29T05:58:44;7.80;99.90
26599;DHT22;14240;51.064;16.612;2022-09-29T06:01:18;7.90;99.90
26599;DHT22;14240;51.064;16.612;2022-09-29T06:03:44;7.90;99.90
26599;DHT22;14240;51.064;16.612;2022-09-29T06:06:12;8.00;99.90
26599;DHT22;14240;51.064;16.612;2022-09-29T06:08:38;8.10;99.90
26599;DHT22;14240;51.064;16.612;2022-09-29T06:11:06;8.20;99.90
26599;DHT22;14240;51.064;16.612;2022-09-29T06:13:33;8.20;99.90
26599;DHT22;14240;51.064;16.612;2022-09-29T06:15:59;8.30;99.90
26599;DHT22;14240;51.064;16.612;2022-09-29T06:18:25;8.40;99.90
26599;DHT22;14240;51.064;16.612;2022-09-29T06:20:51;8.50;99.90
26599;DHT22;14240;51.064;16.612;2022-09-29T06:23:16;8.60;99.90
26599;DHT22;14240;51.064;16.612;2022-09-29T06:25:42;8.70;99.90
26599;DHT22;14240;51.064;16.612;2022-09-29T06:28:08;8.80;99.90
26599;DHT22;14240;51.064;16.612;2022-09-29T06:30:33;9.00;99.90
26599;DHT22;14240;51.064;16.612;2022-09-29T06:32:59;9.20;99.90
26599;DHT22;14240;51.064;16.612;2022-09-29T06:35:24;9.20;99.90
26599;DHT22;14240;51.064;16.612;2022-09-29T06:38:08;9.30;99.90
26599;DHT22;14240;51.064;16.612;2022-09-29T06:40:35;9.40;99.90
26599;DHT22;14240;51.064;16.612;2022-09-29T06:43:00;9.70;99.90
26599;DHT22;14240;51.064;16.612;2022-09-29T06:45:27;9.70;99.90
26599;DHT22;14240;51.064;16.612;2022-09-29T06:47:58;9.80;99.90
26599;DHT22;14240;51.064;16.612;2022-09-29T06:50:24;9.90;99.90
26599;DHT22;14240;51.064;16.612;2022-09-29T06:52:50;10.10;99.90
26599;DHT22;14240;51.064;16.612;2022-09-29T06:55:15;10.20;99.90
26599;DHT22;14240;51.064;16.612;2022-09-29T06:57:41;10.30;99.90
26599;DHT22;14240;51.064;16.612;2022-09-29T07:00:07;10.50;99.90
26599;DHT22;14240;51.064;16.612;2022-09-29T07:02:33;10.60;99.90
26599;DHT22;14240;51.064;16.612;2022-09-29T07:04:58;10.80;99.90
26599;DHT22;14240;51.064;16.612;2022-09-29T07:07:24;11.00;99.90
26599;DHT22;14240;51.064;16.612;2022-09-29T07:09:50;11.30;99.90
26599;DHT22;14240;51.064;16.612;2022-09-29T07:12:15;11.40;99.90
26599;DHT22;14240;51.064;16.612;2022-09-29T07:14:41;11.70;99.90
26599;DHT22;14240;51.064;16.612;2022-09-29T07:17:06;11.90;99.90
26599;DHT22;14240;51.064;16.612;2022-09-29T07:19:33;12.00;99.90
26599;DHT22;14240;51.064;16.612;2022-09-29T07:21:59;12.30;99.90
26599;DHT22;14240;51.064;16.612;2022-09-29T07:24:25;12.50;99.90
26599;DHT22;14240;51.064;16.612;2022-09-29T07:26:50;12.90;99.90
26599;DHT22;14240;51.064;16.612;2022-09-29T07:29:16;13.20;99.90
26599;DHT22;14240;51.064;16.612;2022-09-29T07:31:42;13.60;99.90
26599;DHT22;14240;51.064;16.612;2022-09-29T07:34:09;13.90;99.90
26599;DHT22;14240;51.064;16.612;2022-09-29T07:36:35;14.20;99.90
26599;DHT22;14240;51.064;16.612;2022-09-29T07:39:03;14.60;99.90
26599;DHT22;14240;51.064;16.612;2022-09-29T07:41:28;14.90;99.90
26599;DHT22;14240;51.064;16.612;2022-09-29T07:43:54;15.30;99.90
26599;DHT22;14240;51.064;16.612;2022-09-29T07:46:19;15.90;99.90
26599;DHT22;14240;51.064;16.612;2022-09-29T07:48:46;16.60;99.90
26599;DHT22;14240;51.064;16.612;2022-09-29T07:51:14;17.30;99.90
26599;DHT22;14240;51.064;16.612;2022-09-29T07:53:40;17.90;99.90
26599;DHT22;14240;51.064;16.612;2022-09-29T07:56:11;18.50;99.90
26599;DHT22;14240;51.064;16.612;2022-09-29T07:58:37;18.90;99.90
26599;DHT22;14240;51.064;16.612;2022-09-29T08:01:05;19.40;99.90
26599;DHT22;14240;51.064;16.612;2022-09-29T08:03:35;20.10;99.90
26599;DHT22;14240;51.064;16.612;2022-09-29T08:06:00;20.80;98.50
26599;DHT22;14240;51.064;16.612;2022-09-29T08:08:26;21.40;97.40
26599;DHT22;14240;51.064;16.612;2022-09-29T08:11:01;22.30;96.50
26599;DHT22;14240;51.064;16.612;2022-09-29T08:13:27;23.10;94.60
26599;DHT22;14240;51.064;16.612;2022-09-29T08:15:57;23.90;93.40
26599;DHT22;14240;51.064;16.612;2022-09-29T08:18:23;24.80;91.10
26599;DHT22;14240;51.064;16.612;2022-09-29T08:20:49;25.60;88.90
26599;DHT22;14240;51.064;16.612;2022-09-29T08:23:15;26.40;86.30
26599;DHT22;14240;51.064;16.612;2022-09-29T08:25:41;27.30;83.00
26599;DHT22;14240;51.064;16.612;2022-09-29T08:28:07;28.00;78.60
26599;DHT22;14240;51.064;16.612;2022-09-29T08:30:35;28.60;75.10
26599;DHT22;14240;51.064;16.612;2022-09-29T08:33:01;29.20;70.40
26599;DHT22;14240;51.064;16.612;2022-09-29T08:35:28;29.60;66.10
26599;DHT22;14240;51.064;16.612;2022-09-29T08:37:54;30.00;62.40
26599;DHT22;14240;51.064;16.612;2022-09-29T08:40:26;30.30;60.40
26599;DHT22;14240;51.064;16.612;2022-09-29T08:43:13;30.70;60.00
26599;DHT22;14240;51.064;16.612;2022-09-29T08:45:49;31.20;56.20
26599;DHT22;14240;51.064;16.612;2022-09-29T08:48:22;31.40;55.80
26599;DHT22;14240;51.064;16.612;2022-09-29T08:50:57;31.70;54.90
26599;DHT22;14240;51.064;16.612;2022-09-29T08:53:25;32.00;52.60
26599;DHT22;14240;51.064;16.612;2022-09-29T08:58:21;32.70;50.80
26599;DHT22;14240;51.064;16.612;2022-09-29T09:01:13;32.70;49.10
26599;DHT22;14240;51.064;16.612;2022-09-29T09:06:13;32.30;47.20
26599;DHT22;14240;51.064;16.612;2022-09-29T09:14:38;29.00;50.10
26599;DHT22;14240;51.064;16.612;2022-09-29T09:20:11;27.50;50.40
26599;DHT22;14240;51.064;16.612;2022-09-29T09:25:22;25.90;52.80
26599;DHT22;14240;51.064;16.612;2022-09-29T09:30:26;25.00;55.50
26599;DHT22;14240;51.064;16.612;2022-09-29T09:32:58;24.60;56.50
26599;DHT22;14240;51.064;16.612;2022-09-29T09:35:51;24.20;57.40
26599;DHT22;14240;51.064;16.612;2022-09-29T09:38:22;23.70;58.00
26599;DHT22;14240;51.064;16.612;2022-09-29T09:40:52;23.40;58.50
26599;DHT22;14240;51.064;16.612;2022-09-29T09:43:57;23.10;59.60
26599;DHT22;14240;51.064;16.612;2022-09-29T09:46:39;22.80;60.10
26599;DHT22;14240;51.064;16.612;2022-09-29T09:49:31;22.50;60.50
26599;DHT22;14240;51.064;16.612;2022-09-29T09:59:38;21.50;63.80
26599;DHT22;14240;51.064;16.612;2022-09-29T10:02:16;21.30;63.10
26599;DHT22;14240;51.064;16.612;2022-09-29T10:04:43;21.10;63.40
26599;DHT22;14240;51.064;16.612;2022-09-29T10:07:11;20.90;63.60
26599;DHT22;14240;51.064;16.612;2022-09-29T10:09:36;20.80;64.00
26599;DHT22;14240;51.064;16.612;2022-09-29T10:12:02;20.60;65.40
26599;DHT22;14240;51.064;16.612;2022-09-29T10:14:28;20.40;66.00
26599;DHT22;14240;51.064;16.612;2022-09-29T10:16:58;20.30;66.50
26599;DHT22;14240;51.064;16.612;2022-09-29T10:22:19;20.00;67.60
26599;DHT22;14240;51.064;16.612;2022-09-29T10:24:45;19.90;67.60
26599;DHT22;14240;51.064;16.612;2022-09-29T10:27:17;19.70;68.60
26599;DHT22;14240;51.064;16.612;2022-09-29T10:29:46;19.60;68.60
26599;DHT22;14240;51.064;16.612;2022-09-29T10:34:46;19.40;69.40
26599;DHT22;14240;51.064;16.612;2022-09-29T10:40:14;19.10;71.80
26599;DHT22;14240;51.064;16.612;2022-09-29T10:42:44;19.10;71.70
26599;DHT22;14240;51.064;16.612;2022-09-29T10:45:23;19.00;72.60
26599;DHT22;14240;51.064;16.612;2022-09-29T10:50:36;18.90;72.50
26599;DHT22;14240;51.064;16.612;2022-09-29T10:53:18;18.90;73.00
26599;DHT22;14240;51.064;16.612;2022-09-29T10:55:48;18.80;73.40
26599;DHT22;14240;51.064;16.612;2022-09-29T10:58:24;18.70;73.50
26599;DHT22;14240;51.064;16.612;2022-09-29T11:01:10;18.70;72.70
26599;DHT22;14240;51.064;16.612;2022-09-29T11:03:49;18.60;73.10
26599;DHT22;14240;51.064;16.612;2022-09-29T11:06:16;18.50;72.90
26599;DHT22;14240;51.064;16.612;2022-09-29T11:11:30;18.50;73.40
26599;DHT22;14240;51.064;16.612;2022-09-29T11:13:57;18.50;73.60
26599;DHT22;14240;51.064;16.612;2022-09-29T11:16:37;18.50;72.20
26599;DHT22;14240;51.064;16.612;2022-09-29T11:19:11;18.40;72.10
26599;DHT22;14240;51.064;16.612;2022-09-29T11:26:56;18.40;73.20
26599;DHT22;14240;51.064;16.612;2022-09-29T11:37:44;18.00;73.00
26599;DHT22;14240;51.064;16.612;2022-09-29T11:40:34;17.90;73.50
26599;DHT22;14240;51.064;16.612;2022-09-29T11:46:05;17.90;75.90
26599;DHT22;14240;51.064;16.612;2022-09-29T11:48:41;18.00;76.50
26599;DHT22;14240;51.064;16.612;2022-09-29T11:51:26;18.00;76.90
26599;DHT22;14240;51.064;16.612;2022-09-29T11:57:29;18.10;74.50
26599;DHT22;14240;51.064;16.612;2022-09-29T12:02:58;18.10;74.50
26599;DHT22;14240;51.064;16.612;2022-09-29T12:08:48;18.10;74.50
26599;DHT22;14240;51.064;16.612;2022-09-29T12:11:26;18.00;74.00
26599;DHT22;14240;51.064;16.612;2022-09-29T12:13:59;18.10;75.30
26599;DHT22;14240;51.064;16.612;2022-09-29T12:16:34;18.10;75.30
26599;DHT22;14240;51.064;16.612;2022-09-29T12:19:14;18.10;75.00
26599;DHT22;14240;51.064;16.612;2022-09-29T12:21:46;17.90;75.40
26599;DHT22;14240;51.064;16.612;2022-09-29T12:24:43;17.90;75.70
26599;DHT22;14240;51.064;16.612;2022-09-29T12:27:38;17.80;75.80
26599;DHT22;14240;51.064;16.612;2022-09-29T12:30:23;17.80;77.30
26599;DHT22;14240;51.064;16.612;2022-09-29T12:41:15;17.80;76.50
26599;DHT22;14240;51.064;16.612;2022-09-29T12:43:54;17.70;75.80
26599;DHT22;14240;51.064;16.612;2022-09-29T12:46:26;17.80;76.00
26599;DHT22;14240;51.064;16.612;2022-09-29T12:49:01;17.80;76.40
26599;DHT22;14240;51.064;16.612;2022-09-29T12:51:40;17.70;76.50
26599;DHT22;14240;51.064;16.612;2022-09-29T12:56:45;17.50;76.00
26599;DHT22;14240;51.064;16.612;2022-09-29T12:59:38;17.40;76.30
26599;DHT22;14240;51.064;16.612;2022-09-29T13:02:46;17.30;76.10
26599;DHT22;14240;51.064;16.612;2022-09-29T13:17:21;16.70;78.00
26599;DHT22;14240;51.064;16.612;2022-09-29T13:25:19;16.60;78.60
26599;DHT22;14240;51.064;16.612;2022-09-29T13:27:47;16.50;78.50
26599;DHT22;14240;51.064;16.612;2022-09-29T13:30:19;16.50;78.60
26599;DHT22;14240;51.064;16.612;2022-09-29T13:32:52;16.40;78.80
26599;DHT22;14240;51.064;16.612;2022-09-29T13:35:21;16.40;78.90
26599;DHT22;14240;51.064;16.612;2022-09-29T13:38:19;16.30;80.00
26599;DHT22;14240;51.064;16.612;2022-09-29T13:51:57;16.10;81.20
26599;DHT22;14240;51.064;16.612;2022-09-29T14:02:29;16.10;82.20
26599;DHT22;14240;51.064;16.612;2022-09-29T14:04:57;16.00;81.70
26599;DHT22;14240;51.064;16.612;2022-09-29T14:13:00;16.00;82.90
26599;DHT22;14240;51.064;16.612;2022-09-29T14:15:27;16.00;83.80
26599;DHT22;14240;51.064;16.612;2022-09-29T14:18:01;16.00;84.70
26599;DHT22;14240;51.064;16.612;2022-09-29T14:20:31;15.90;85.40
26599;DHT22;14240;51.064;16.612;2022-09-29T14:22:59;15.90;85.50
26599;DHT22;14240;51.064;16.612;2022-09-29T14:28:09;15.80;85.70
26599;DHT22;14240;51.064;16.612;2022-09-29T14:30:40;15.70;86.30
26599;DHT22;14240;51.064;16.612;2022-09-29T14:33:23;15.80;87.10
26599;DHT22;14240;51.064;16.612;2022-09-29T14:38:33;15.70;88.30
26599;DHT22;14240;51.064;16.612;2022-09-29T14:43:45;15.60;89.30
26599;DHT22;14240;51.064;16.612;2022-09-29T14:49:44;15.50;89.20
26599;DHT22;14240;51.064;16.612;2022-09-29T14:53:15;15.50;89.80
26599;DHT22;14240;51.064;16.612;2022-09-29T14:58:51;15.40;90.30
26599;DHT22;14240;51.064;16.612;2022-09-29T15:01:29;15.30;90.40
26599;DHT22;14240;51.064;16.612;2022-09-29T15:04:06;15.30;90.20
26599;DHT22;14240;51.064;16.612;2022-09-29T15:06:43;15.30;90.30
26599;DHT22;14240;51.064;16.612;2022-09-29T15:09:23;15.30;90.10
26599;DHT22;14240;51.064;16.612;2022-09-29T15:11:53;15.20;90.20
26599;DHT22;14240;51.064;16.612;2022-09-29T15:17:37;15.10;90.20
26599;DHT22;14240;51.064;16.612;2022-09-29T15:24:53;15.10;90.00
26599;DHT22;14240;51.064;16.612;2022-09-29T15:27:20;15.00;90.30
26599;DHT22;14240;51.064;16.612;2022-09-29T15:29:47;15.00;90.60
26599;DHT22;14240;51.064;16.612;2022-09-29T15:32:26;15.00;90.70
26599;DHT22;14240;51.064;16.612;2022-09-29T15:34:58;14.90;90.70
26599;DHT22;14240;51.064;16.612;2022-09-29T15:37:25;14.90;91.00
26599;DHT22;14240;51.064;16.612;2022-09-29T15:39:52;14.80;91.30
26599;DHT22;14240;51.064;16.612;2022-09-29T15:42:20;14.70;91.60
26599;DHT22;14240;51.064;16.612;2022-09-29T15:45:16;14.70;91.80
26599;DHT22;14240;51.064;16.612;2022-09-29T15:47:42;14.70;92.50
26599;DHT22;14240;51.064;16.612;2022-09-29T15:50:22;14.70;92.90
26599;DHT22;14240;51.064;16.612;2022-09-29T15:52:48;14.70;93.50
26599;DHT22;14240;51.064;16.612;2022-09-29T15:55:20;14.60;93.70
26599;DHT22;14240;51.064;16.612;2022-09-29T15:57:48;14.60;93.70
26599;DHT22;14240;51.064;16.612;2022-09-29T16:03:16;14.50;93.70
26599;DHT22;14240;51.064;16.612;2022-09-29T16:05:42;14.50;94.20
26599;DHT22;14240;51.064;16.612;2022-09-29T16:08:23;14.40;94.60
26599;DHT22;14240;51.064;16.612;2022-09-29T16:10:55;14.40;94.80
26599;DHT22;14240;51.064;16.612;2022-09-29T16:13:33;14.40;95.00
26599;DHT22;14240;51.064;16.612;2022-09-29T16:16:08;14.30;95.20
26599;DHT22;14240;51.064;16.612;2022-09-29T16:18:46;14.30;95.40
26599;DHT22;14240;51.064;16.612;2022-09-29T16:21:18;14.30;95.60
26599;DHT22;14240;51.064;16.612;2022-09-29T16:23:50;13.90;96.10
26599;DHT22;14240;51.064;16.612;2022-09-29T16:26:38;14.20;96.70
26599;DHT22;14240;51.064;16.612;2022-09-29T16:31:37;14.10;97.70
26599;DHT22;14240;51.064;16.612;2022-09-29T16:34:26;14.10;98.00
26599;DHT22;14240;51.064;16.612;2022-09-29T16:36:51;14.10;98.40
26599;DHT22;14240;51.064;16.612;2022-09-29T16:39:20;14.10;98.60
26599;DHT22;14240;51.064;16.612;2022-09-29T16:41:57;14.00;99.10
26599;DHT22;14240;51.064;16.612;2022-09-29T16:44:29;14.00;99.70
26599;DHT22;14240;51.064;16.612;2022-09-29T16:49:32;13.90;99.80
26599;DHT22;14240;51.064;16.612;2022-09-29T16:52:11;13.90;99.70
26599;DHT22;14240;51.064;16.612;2022-09-29T16:54:44;13.90;99.50
26599;DHT22;14240;51.064;16.612;2022-09-29T16:57:23;13.80;99.20
26599;DHT22;14240;51.064;16.612;2022-09-29T17:00:10;13.80;99.50
26599;DHT22;14240;51.064;16.612;2022-09-29T17:02:36;13.80;99.20
26599;DHT22;14240;51.064;16.612;2022-09-29T17:05:02;13.80;99.10
26599;DHT22;14240;51.064;16.612;2022-09-29T17:07:30;13.80;99.10
26599;DHT22;14240;51.064;16.612;2022-09-29T17:09:58;13.70;99.10
26599;DHT22;14240;51.064;16.612;2022-09-29T17:12:26;13.70;99.10
26599;DHT22;14240;51.064;16.612;2022-09-29T17:14:52;13.70;99.00
26599;DHT22;14240;51.064;16.612;2022-09-29T17:17:24;13.70;99.00
26599;DHT22;14240;51.064;16.612;2022-09-29T17:19:51;13.60;98.90
26599;DHT22;14240;51.064;16.612;2022-09-29T17:22:33;13.60;99.00
26599;DHT22;14240;51.064;16.612;2022-09-29T17:25:01;13.60;99.00
26599;DHT22;14240;51.064;16.612;2022-09-29T17:27:28;13.60;99.20
26599;DHT22;14240;51.064;16.612;2022-09-29T17:30:14;13.60;99.50
26599;DHT22;14240;51.064;16.612;2022-09-29T17:32:43;13.50;99.80
26599;DHT22;14240;51.064;16.612;2022-09-29T17:35:12;13.40;99.90
26599;DHT22;14240;51.064;16.612;2022-09-29T17:37:39;13.40;99.90
26599;DHT22;14240;51.064;16.612;2022-09-29T17:42:46;13.30;99.90
26599;DHT22;14240;51.064;16.612;2022-09-29T17:45:15;13.30;99.90
26599;DHT22;14240;51.064;16.612;2022-09-29T17:47:45;13.30;99.90
26599;DHT22;14240;51.064;16.612;2022-09-29T17:50:17;13.20;99.90
26599;DHT22;14240;51.064;16.612;2022-09-29T17:52:45;13.20;99.90
26599;DHT22;14240;51.064;16.612;2022-09-29T17:55:10;13.10;99.90
26599;DHT22;14240;51.064;16.612;2022-09-29T17:57:37;13.10;99.90
26599;DHT22;14240;51.064;16.612;2022-09-29T18:00:14;13.10;99.90
26599;DHT22;14240;51.064;16.612;2022-09-29T18:02:40;13.00;99.90
26599;DHT22;14240;51.064;16.612;2022-09-29T18:05:06;13.00;99.90
26599;DHT22;14240;51.064;16.612;2022-09-29T18:07:31;12.90;99.90
26599;DHT22;14240;51.064;16.612;2022-09-29T18:09:57;12.90;99.90
26599;DHT22;14240;51.064;16.612;2022-09-29T18:12:23;12.90;99.90
26599;DHT22;14240;51.064;16.612;2022-09-29T18:14:48;12.90;99.90
26599;DHT22;14240;51.064;16.612;2022-09-29T18:17:14;12.80;99.90
26599;DHT22;14240;51.064;16.612;2022-09-29T18:19:40;12.80;99.90
26599;DHT22;14240;51.064;16.612;2022-09-29T18:22:06;12.80;99.90
26599;DHT22;14240;51.064;16.612;2022-09-29T18:24:33;12.80;99.90
26599;DHT22;14240;51.064;16.612;2022-09-29T18:26:59;12.70;99.90
26599;DHT22;14240;51.064;16.612;2022-09-29T18:29:24;12.70;99.90
26599;DHT22;14240;51.064;16.612;2022-09-29T18:31:50;12.70;99.90
26599;DHT22;14240;51.064;16.612;2022-09-29T18:34:19;12.60;99.90
26599;DHT22;14240;51.064;16.612;2022-09-29T18:36:44;12.60;99.90
26599;DHT22;14240;51.064;16.612;2022-09-29T18:39:14;12.60;99.90
26599;DHT22;14240;51.064;16.612;2022-09-29T18:41:39;12.50;99.90
26599;DHT22;14240;51.064;16.612;2022-09-29T18:44:14;12.50;99.90
26599;DHT22;14240;51.064;16.612;2022-09-29T18:46:40;12.40;99.90